sensor_id;sensor_type;location;lat;lon;timestamp;pressure;altitude;pressure_sealevel;temperature;humidity
14242;BME280;7205;50.864;12.766;2023-05-12T00:02:25;97552.34;;;13.70;61.22
14242;BME280;7205;50.864;12.766;2023-05-12T00:04:52;97547.25;;;13.75;61.10
14242;BME280;7205;50.864;12.766;2023-05-12T00:07:19;97544.84;;;13.80;61.41
14242;BME280;7205;50.864;12.766;2023-05-12T00:09:47;97551.19;;;13.85;61.32
14242;BME280;7205;50.864;12.766;2023-05-12T00:12:14;97550.59;;;13.90;61.46
14242;BME280;7205;50.864;12.766;2023-05-12T00:14:41;97547.38;;;13.95;61.54
14242;BME280;7205;50.864;12.766;2023-05-12T00:17:08;97545.31;;;13.97;61.62
14242;BME280;7205;50.864;12.766;2023-05-12T00:19:35;97558.00;;;14.01;61.36
14242;BME280;7205;50.864;12.766;2023-05-12T00:22:02;97555.97;;;14.03;61.36
14242;BME280;7205;50.864;12.766;2023-05-12T00:24:28;97549.84;;;14.03;61.15
14242;BME280;7205;50.864;12.766;2023-05-12T00:26:57;97556.38;;;14.07;61.38
14242;BME280;7205;50.864;12.766;2023-05-12T00:29:24;97549.84;;;14.03;61.63
14242;BME280;7205;50.864;12.766;2023-05-12T00:31:50;97550.06;;;14.08;61.54
14242;BME280;7205;50.864;12.766;2023-05-12T00:34:17;97553.53;;;14.08;61.73
14242;BME280;7205;50.864;12.766;2023-05-12T00:36:44;97548.25;;;14.08;62.04
14242;BME280;7205;50.864;12.766;2023-05-12T00:39:11;97564.97;;;14.09;62.01
14242;BME280;7205;50.864;12.766;2023-05-12T00:41:38;97558.22;;;14.06;62.36
14242;BME280;7205;50.864;12.766;2023-05-12T00:44:09;97561.31;;;14.10;62.07
14242;BME280;7205;50.864;12.766;2023-05-12T00:46:36;97565.78;;;14.09;61.95
14242;BME280;7205;50.864;12.766;2023-05-12T00:49:03;97558.84;;;14.08;62.03
14242;BME280;7205;50.864;12.766;2023-05-12T00:51:30;97567.41;;;14.10;62.06
14242;BME280;7205;50.864;12.766;2023-05-12T00:53:58;97563.97;;;14.10;62.11
14242;BME280;7205;50.864;12.766;2023-05-12T00:56:24;97557.81;;;14.09;62.28
14242;BME280;7205;50.864;12.766;2023-05-12T00:58:51;97556.00;;;14.10;62.44
14242;BME280;7205;50.864;12.766;2023-05-12T01:01:20;97554.97;;;14.11;62.41
14242;BME280;7205;50.864;12.766;2023-05-12T01:03:51;97551.28;;;14.12;62.43
14242;BME280;7205;50.864;12.766;2023-05-12T01:06:22;97548.63;;;14.12;62.58
14242;BME280;7205;50.864;12.766;2023-05-12T01:08:54;97545.97;;;14.12;62.26
14242;BME280;7205;50.864;12.766;2023-05-12T01:11:21;97545.97;;;14.12;62.45
14242;BME280;7205;50.864;12.766;2023-05-12T01:13:48;97545.19;;;14.11;62.34
14242;BME280;7205;50.864;12.766;2023-05-12T01:16:28;97545.97;;;14.12;62.29
14242;BME280;7205;50.864;12.766;2023-05-12T01:18:58;97544.97;;;14.13;62.52
14242;BME280;7205;50.864;12.766;2023-05-12T01:21:26;97545.59;;;14.15;62.25
14242;BME280;7205;50.864;12.766;2023-05-12T01:23:57;97543.75;;;14.15;62.33
14242;BME280;7205;50.864;12.766;2023-05-12T01:26:29;97549.88;;;14.16;62.34
14242;BME280;7205;50.864;12.766;2023-05-12T01:28:58;97550.50;;;14.18;62.54
14242;BME280;7205;50.864;12.766;2023-05-12T01:31:26;97547.03;;;14.17;62.60
14242;BME280;7205;50.864;12.766;2023-05-12T01:33:53;97547.84;;;14.18;62.26
14242;BME280;7205;50.864;12.766;2023-05-12T01:36:23;97545.19;;;14.18;62.20
14242;BME280;7205;50.864;12.766;2023-05-12T01:38:50;97539.69;;;14.19;62.19
14242;BME280;7205;50.864;12.766;2023-05-12T01:41:17;97541.50;;;14.19;62.24
14242;BME280;7205;50.864;12.766;2023-05-12T01:43:45;97539.69;;;14.19;62.16
14242;BME280;7205;50.864;12.766;2023-05-12T01:46:13;97545.81;;;14.20;62.14
14242;BME280;7205;50.864;12.766;2023-05-12T01:48:41;97549.28;;;14.20;62.44
14242;BME280;7205;50.864;12.766;2023-05-12T01:51:09;97538.66;;;14.20;62.53
14242;BME280;7205;50.864;12.766;2023-05-12T01:53:36;97543.16;;;14.20;62.57
14242;BME280;7205;50.864;12.766;2023-05-12T01:56:03;97549.69;;;14.17;62.43
14242;BME280;7205;50.864;12.766;2023-05-12T01:58:32;97548.25;;;14.15;62.78
14242;BME280;7205;50.864;12.766;2023-05-12T02:01:01;97546.19;;;14.10;62.86
14242;BME280;7205;50.864;12.766;2023-05-12T02:03:28;97545.94;;;14.05;63.24
14242;BME280;7205;50.864;12.766;2023-05-12T02:05:56;97549.41;;;13.99;63.07
14242;BME280;7205;50.864;12.766;2023-05-12T02:08:23;97551.66;;;13.96;63.51
14242;BME280;7205;50.864;12.766;2023-05-12T02:11:05;97551.00;;;13.87;63.46
14242;BME280;7205;50.864;12.766;2023-05-12T02:13:32;97552.00;;;13.79;63.82
14242;BME280;7205;50.864;12.766;2023-05-12T02:16:01;97553.38;;;13.69;63.75
14242;BME280;7205;50.864;12.766;2023-05-12T02:18:29;97553.53;;;13.61;63.80
14242;BME280;7205;50.864;12.766;2023-05-12T02:20:55;97550.41;;;13.51;63.79
14242;BME280;7205;50.864;12.766;2023-05-12T02:23:22;97547.31;;;13.41;63.79
14242;BME280;7205;50.864;12.766;2023-05-12T02:25:49;97550.09;;;13.33;63.90
14242;BME280;7205;50.864;12.766;2023-05-12T02:28:22;97545.13;;;13.23;64.15
14242;BME280;7205;50.864;12.766;2023-05-12T02:30:50;97548.75;;;13.16;64.36
14242;BME280;7205;50.864;12.766;2023-05-12T02:33:20;97547.25;;;13.07;64.54
14242;BME280;7205;50.864;12.766;2023-05-12T02:35:47;97551.84;;;12.98;65.18
14242;BME280;7205;50.864;12.766;2023-05-12T02:38:14;97552.81;;;12.91;65.39
14242;BME280;7205;50.864;12.766;2023-05-12T02:40:41;97551.56;;;12.87;65.71
14242;BME280;7205;50.864;12.766;2023-05-12T02:43:08;97550.03;;;12.78;65.96
14242;BME280;7205;50.864;12.766;2023-05-12T02:45:35;97562.44;;;12.71;65.84
14242;BME280;7205;50.864;12.766;2023-05-12T02:48:02;97565.19;;;12.62;66.08
14242;BME280;7205;50.864;12.766;2023-05-12T02:50:31;97560.03;;;12.54;66.21
14242;BME280;7205;50.864;12.766;2023-05-12T02:52:58;97559.78;;;12.49;66.26
14242;BME280;7205;50.864;12.766;2023-05-12T02:55:25;97559.06;;;12.41;66.76
14242;BME280;7205;50.864;12.766;2023-05-12T02:57:52;97568.22;;;12.38;66.87
14242;BME280;7205;50.864;12.766;2023-05-12T03:00:19;97562.03;;;12.31;67.38
14242;BME280;7205;50.864;12.766;2023-05-12T03:02:46;97567.13;;;12.33;67.62
14242;BME280;7205;50.864;12.766;2023-05-12T03:05:13;97564.69;;;12.31;67.67
14242;BME280;7205;50.864;12.766;2023-05-12T03:07:41;97561.41;;;12.29;67.93
14242;BME280;7205;50.864;12.766;2023-05-12T03:10:08;97564.22;;;12.28;68.53
14242;BME280;7205;50.864;12.766;2023-05-12T03:12:36;97565.25;;;12.27;68.77
14242;BME280;7205;50.864;12.766;2023-05-12T03:15:03;97567.91;;;12.27;69.35
14242;BME280;7205;50.864;12.766;2023-05-12T03:17:31;97563.25;;;12.29;69.58
14242;BME280;7205;50.864;12.766;2023-05-12T03:19:58;97561.22;;;12.31;69.91
14242;BME280;7205;50.864;12.766;2023-05-12T03:22:25;97567.34;;;12.31;69.91
14242;BME280;7205;50.864;12.766;2023-05-12T03:24:53;97567.59;;;12.36;70.26
14242;BME280;7205;50.864;12.766;2023-05-12T03:27:21;97557.63;;;12.38;70.38
14242;BME280;7205;50.864;12.766;2023-05-12T03:29:48;97552.78;;;12.42;70.40
14242;BME280;7205;50.864;12.766;2023-05-12T03:32:15;97566.28;;;12.47;70.51
14242;BME280;7205;50.864;12.766;2023-05-12T03:34:43;97556.94;;;12.51;70.82
14242;BME280;7205;50.864;12.766;2023-05-12T03:37:10;97558.00;;;12.56;70.93
14242;BME280;7205;50.864;12.766;2023-05-12T03:39:39;97562.72;;;12.61;70.72
14242;BME280;7205;50.864;12.766;2023-05-12T03:42:07;97557.06;;;12.64;71.33
14242;BME280;7205;50.864;12.766;2023-05-12T03:44:34;97559.97;;;12.69;71.51
14242;BME280;7205;50.864;12.766;2023-05-12T03:47:01;97557.75;;;12.73;71.68
14242;BME280;7205;50.864;12.766;2023-05-12T03:49:28;97564.50;;;12.75;71.61
14242;BME280;7205;50.864;12.766;2023-05-12T03:51:56;97558.19;;;12.76;71.46
14242;BME280;7205;50.864;12.766;2023-05-12T03:54:23;97548.03;;;12.80;71.74
14242;BME280;7205;50.864;12.766;2023-05-12T03:56:51;97552.94;;;12.83;71.97
14242;BME280;7205;50.864;12.766;2023-05-12T03:59:19;97569.91;;;12.88;72.10
14242;BME280;7205;50.864;12.766;2023-05-12T04:01:46;97557.50;;;12.89;72.21
14242;BME280;7205;50.864;12.766;2023-05-12T04:04:13;97561.41;;;12.93;72.34
14242;BME280;7205;50.864;12.766;2023-05-12T04:06:40;97558.16;;;12.97;72.54
14242;BME280;7205;50.864;12.766;2023-05-12T04:09:07;97567.38;;;13.01;72.59
14242;BME280;7205;50.864;12.766;2023-05-12T04:11:35;97574.78;;;13.06;72.73
14242;BME280;7205;50.864;12.766;2023-05-12T04:14:02;97564.63;;;13.09;72.83
14242;BME280;7205;50.864;12.766;2023-05-12T04:16:30;97561.59;;;13.12;72.82
14242;BME280;7205;50.864;12.766;2023-05-12T04:18:57;97559.38;;;13.16;73.01
14242;BME280;7205;50.864;12.766;2023-05-12T04:21:24;97564.28;;;13.19;72.65
14242;BME280;7205;50.864;12.766;2023-05-12T04:23:51;97557.16;;;13.19;73.10
14242;BME280;7205;50.864;12.766;2023-05-12T04:26:19;97569.00;;;13.23;73.14
14242;BME280;7205;50.864;12.766;2023-05-12T04:28:46;97572.47;;;13.24;73.18
14242;BME280;7205;50.864;12.766;2023-05-12T04:31:20;97571.25;;;13.26;73.21
14242;BME280;7205;50.864;12.766;2023-05-12T04:33:48;97566.16;;;13.25;73.21
14242;BME280;7205;50.864;12.766;2023-05-12T04:36:16;97568.81;;;13.25;73.52
14242;BME280;7205;50.864;12.766;2023-05-12T04:38:48;97568.00;;;13.24;73.43
14242;BME280;7205;50.864;12.766;2023-05-12T04:41:16;97573.91;;;13.26;74.01
14242;BME280;7205;50.864;12.766;2023-05-12T04:43:43;97578.03;;;13.29;74.23
14242;BME280;7205;50.864;12.766;2023-05-12T04:46:10;97577.00;;;13.30;74.29
14242;BME280;7205;50.864;12.766;2023-05-12T04:48:40;97579.28;;;13.33;74.70
14242;BME280;7205;50.864;12.766;2023-05-12T04:51:09;97583.16;;;13.37;75.04
14242;BME280;7205;50.864;12.766;2023-05-12T04:53:36;97582.22;;;13.44;75.29
14242;BME280;7205;50.864;12.766;2023-05-12T04:56:03;97576.75;;;13.52;75.54
14242;BME280;7205;50.864;12.766;2023-05-12T04:58:36;97579.88;;;13.62;75.84
14242;BME280;7205;50.864;12.766;2023-05-12T05:01:06;97583.81;;;13.73;75.98
14242;BME280;7205;50.864;12.766;2023-05-12T05:03:33;97580.41;;;13.85;75.84
14242;BME280;7205;50.864;12.766;2023-05-12T05:06:00;97583.31;;;13.97;75.70
14242;BME280;7205;50.864;12.766;2023-05-12T05:08:29;97588.66;;;14.10;76.08
14242;BME280;7205;50.864;12.766;2023-05-12T05:10:55;97585.25;;;14.23;76.35
14242;BME280;7205;50.864;12.766;2023-05-12T05:13:23;97585.53;;;14.34;75.99
14242;BME280;7205;50.864;12.766;2023-05-12T05:15:53;97580.25;;;14.47;76.00
14242;BME280;7205;50.864;12.766;2023-05-12T05:18:22;97585.56;;;14.60;75.63
14242;BME280;7205;50.864;12.766;2023-05-12T05:20:49;97582.53;;;14.70;74.86
14242;BME280;7205;50.864;12.766;2023-05-12T05:23:16;97585.63;;;14.80;73.76
14242;BME280;7205;50.864;12.766;2023-05-12T05:25:47;97592.78;;;14.92;73.47
14242;BME280;7205;50.864;12.766;2023-05-12T05:28:13;97589.13;;;15.00;73.38
14242;BME280;7205;50.864;12.766;2023-05-12T05:30:41;97593.00;;;15.10;73.04
14242;BME280;7205;50.864;12.766;2023-05-12T05:33:08;97588.28;;;15.19;72.45
14242;BME280;7205;50.864;12.766;2023-05-12T05:35:37;97599.53;;;15.28;72.11
14242;BME280;7205;50.864;12.766;2023-05-12T05:38:03;97592.78;;;15.38;71.50
14242;BME280;7205;50.864;12.766;2023-05-12T05:40:30;97603.03;;;15.48;70.72
14242;BME280;7205;50.864;12.766;2023-05-12T05:42:59;97593.59;;;15.58;70.32
14242;BME280;7205;50.864;12.766;2023-05-12T05:45:25;97594.81;;;15.69;68.68
14242;BME280;7205;50.864;12.766;2023-05-12T05:47:52;97597.25;;;15.77;67.75
14242;BME280;7205;50.864;12.766;2023-05-12T05:50:24;97598.47;;;15.87;67.27
14242;BME280;7205;50.864;12.766;2023-05-12T05:52:56;97592.47;;;15.98;66.62
14242;BME280;7205;50.864;12.766;2023-05-12T05:55:25;97592.44;;;16.11;65.99
14242;BME280;7205;50.864;12.766;2023-05-12T05:57:52;97597.69;;;16.24;64.99
14242;BME280;7205;50.864;12.766;2023-05-12T06:00:20;97595.41;;;16.34;64.35
14242;BME280;7205;50.864;12.766;2023-05-12T06:02:50;97602.56;;;16.47;63.66
14242;BME280;7205;50.864;12.766;2023-05-12T06:05:19;97601.25;;;16.56;62.66
14242;BME280;7205;50.864;12.766;2023-05-12T06:07:47;97605.09;;;16.67;62.14
14242;BME280;7205;50.864;12.766;2023-05-12T06:10:14;97601.97;;;16.76;61.39
14242;BME280;7205;50.864;12.766;2023-05-12T06:12:40;97598.00;;;16.85;60.85
14242;BME280;7205;50.864;12.766;2023-05-12T06:15:08;97602.47;;;16.98;60.37
14242;BME280;7205;50.864;12.766;2023-05-12T06:17:36;97601.97;;;17.07;59.81
14242;BME280;7205;50.864;12.766;2023-05-12T06:20:05;97603.31;;;17.16;59.33
14242;BME280;7205;50.864;12.766;2023-05-12T06:22:32;97601.19;;;17.25;58.77
14242;BME280;7205;50.864;12.766;2023-05-12T06:24:59;97603.41;;;17.34;57.90
14242;BME280;7205;50.864;12.766;2023-05-12T06:27:26;97603.13;;;17.42;57.14
14242;BME280;7205;50.864;12.766;2023-05-12T06:29:53;97602.63;;;17.52;56.18
14242;BME280;7205;50.864;12.766;2023-05-12T06:32:19;97605.63;;;17.62;54.74
14242;BME280;7205;50.864;12.766;2023-05-12T06:34:48;97606.53;;;17.74;54.16
14242;BME280;7205;50.864;12.766;2023-05-12T06:37:15;97609.53;;;17.84;53.33
14242;BME280;7205;50.864;12.766;2023-05-12T06:39:45;97608.78;;;17.95;52.27
14242;BME280;7205;50.864;12.766;2023-05-12T06:42:11;97611.75;;;18.05;51.28
14242;BME280;7205;50.864;12.766;2023-05-12T06:44:40;97614.94;;;18.14;50.98
14242;BME280;7205;50.864;12.766;2023-05-12T06:47:07;97617.34;;;18.22;50.55
14242;BME280;7205;50.864;12.766;2023-05-12T06:49:34;97618.88;;;18.29;50.52
14242;BME280;7205;50.864;12.766;2023-05-12T06:52:05;97617.97;;;18.35;50.04
14242;BME280;7205;50.864;12.766;2023-05-12T06:54:32;97620.63;;;18.42;49.73
14242;BME280;7205;50.864;12.766;2023-05-12T06:56:59;97614.59;;;18.46;49.47
14242;BME280;7205;50.864;12.766;2023-05-12T06:59:26;97614.94;;;18.50;49.49
14242;BME280;7205;50.864;12.766;2023-05-12T07:01:54;97619.16;;;18.57;49.21
14242;BME280;7205;50.864;12.766;2023-05-12T07:04:22;97620.72;;;18.65;48.58
14242;BME280;7205;50.864;12.766;2023-05-12T07:06:51;97608.72;;;18.67;48.04
14242;BME280;7205;50.864;12.766;2023-05-12T07:09:19;97612.38;;;18.73;48.00
14242;BME280;7205;50.864;12.766;2023-05-12T07:11:46;97614.72;;;18.81;47.92
14242;BME280;7205;50.864;12.766;2023-05-12T07:14:16;97619.06;;;18.94;48.15
14242;BME280;7205;50.864;12.766;2023-05-12T07:16:43;97614.13;;;19.09;48.14
14242;BME280;7205;50.864;12.766;2023-05-12T07:19:10;97615.75;;;19.21;47.80
14242;BME280;7205;50.864;12.766;2023-05-12T07:21:36;97614.78;;;19.34;47.68
14242;BME280;7205;50.864;12.766;2023-05-12T07:24:04;97604.06;;;19.45;47.53
14242;BME280;7205;50.864;12.766;2023-05-12T07:26:32;97617.59;;;19.62;46.54
14242;BME280;7205;50.864;12.766;2023-05-12T07:28:59;97612.47;;;19.72;45.85
14242;BME280;7205;50.864;12.766;2023-05-12T07:31:28;97602.22;;;19.80;45.25
14242;BME280;7205;50.864;12.766;2023-05-12T07:33:55;97610.38;;;19.85;44.83
14242;BME280;7205;50.864;12.766;2023-05-12T07:36:22;97616.97;;;19.94;44.89
14242;BME280;7205;50.864;12.766;2023-05-12T07:38:48;97618.84;;;20.06;44.97
14242;BME280;7205;50.864;12.766;2023-05-12T07:41:15;97617.22;;;20.16;44.78
14242;BME280;7205;50.864;12.766;2023-05-12T07:43:44;97611.59;;;20.29;44.88
14242;BME280;7205;50.864;12.766;2023-05-12T07:46:11;97612.16;;;20.43;44.99
14242;BME280;7205;50.864;12.766;2023-05-12T07:48:38;97618.63;;;20.58;45.01
14242;BME280;7205;50.864;12.766;2023-05-12T07:51:05;97616.22;;;20.73;44.76
14242;BME280;7205;50.864;12.766;2023-05-12T07:53:32;97613.50;;;20.85;44.52
14242;BME280;7205;50.864;12.766;2023-05-12T07:55:59;97613.66;;;20.95;44.48
14242;BME280;7205;50.864;12.766;2023-05-12T07:58:26;97611.44;;;21.03;44.28
14242;BME280;7205;50.864;12.766;2023-05-12T08:00:54;97619.44;;;21.15;44.30
14242;BME280;7205;50.864;12.766;2023-05-12T08:03:24;97616.84;;;21.20;43.32
14242;BME280;7205;50.864;12.766;2023-05-12T08:05:51;97618.81;;;21.25;43.15
14242;BME280;7205;50.864;12.766;2023-05-12T08:08:18;97622.88;;;21.27;42.59
14242;BME280;7205;50.864;12.766;2023-05-12T08:10:45;97619.16;;;21.28;42.44
14242;BME280;7205;50.864;12.766;2023-05-12T08:13:12;97618.56;;;21.26;41.64
14242;BME280;7205;50.864;12.766;2023-05-12T08:15:39;97621.16;;;21.21;41.63
14242;BME280;7205;50.864;12.766;2023-05-12T08:18:07;97621.56;;;21.13;41.66
14242;BME280;7205;50.864;12.766;2023-05-12T08:20:34;97625.00;;;20.97;41.65
14242;BME280;7205;50.864;12.766;2023-05-12T08:23:01;97626.91;;;20.85;41.92
14242;BME280;7205;50.864;12.766;2023-05-12T08:25:28;97630.31;;;20.80;42.24
14242;BME280;7205;50.864;12.766;2023-05-12T08:27:57;97633.59;;;20.82;42.28
14242;BME280;7205;50.864;12.766;2023-05-12T08:30:24;97638.56;;;20.90;42.37
14242;BME280;7205;50.864;12.766;2023-05-12T08:32:51;97639.63;;;21.01;41.49
14242;BME280;7205;50.864;12.766;2023-05-12T08:35:19;97632.31;;;21.13;41.10
14242;BME280;7205;50.864;12.766;2023-05-12T08:37:46;97635.25;;;21.28;41.29
14242;BME280;7205;50.864;12.766;2023-05-12T08:40:17;97636.81;;;21.41;41.15
14242;BME280;7205;50.864;12.766;2023-05-12T08:42:51;97629.97;;;21.50;40.46
14242;BME280;7205;50.864;12.766;2023-05-12T08:45:20;97631.94;;;21.54;39.82
14242;BME280;7205;50.864;12.766;2023-05-12T08:47:49;97630.56;;;21.52;39.34
14242;BME280;7205;50.864;12.766;2023-05-12T08:50:17;97637.72;;;21.46;39.15
14242;BME280;7205;50.864;12.766;2023-05-12T08:52:48;97628.41;;;21.37;39.07
14242;BME280;7205;50.864;12.766;2023-05-12T08:55:16;97629.91;;;21.28;39.54
14242;BME280;7205;50.864;12.766;2023-05-12T08:57:44;97631.09;;;21.21;39.93
14242;BME280;7205;50.864;12.766;2023-05-12T09:00:13;97633.44;;;21.17;40.12
14242;BME280;7205;50.864;12.766;2023-05-12T09:02:41;97634.66;;;21.09;39.88
14242;BME280;7205;50.864;12.766;2023-05-12T09:05:09;97635.06;;;21.01;39.53
14242;BME280;7205;50.864;12.766;2023-05-12T09:07:40;97633.28;;;20.95;39.48
14242;BME280;7205;50.864;12.766;2023-05-12T09:10:14;97631.59;;;20.89;39.37
14242;BME280;7205;50.864;12.766;2023-05-12T09:12:42;97632.63;;;20.88;39.97
14242;BME280;7205;50.864;12.766;2023-05-12T09:15:19;97634.03;;;20.91;40.42
14242;BME280;7205;50.864;12.766;2023-05-12T09:17:46;97632.13;;;21.03;40.57
14242;BME280;7205;50.864;12.766;2023-05-12T09:20:12;97630.50;;;21.18;40.50
14242;BME280;7205;50.864;12.766;2023-05-12T09:22:40;97623.88;;;21.38;40.48
14242;BME280;7205;50.864;12.766;2023-05-12T09:25:15;97636.81;;;21.57;40.39
14242;BME280;7205;50.864;12.766;2023-05-12T09:27:43;97624.41;;;21.73;39.69
14242;BME280;7205;50.864;12.766;2023-05-12T09:30:12;97626.47;;;21.82;39.07
14242;BME280;7205;50.864;12.766;2023-05-12T09:32:39;97628.72;;;21.90;39.10
14242;BME280;7205;50.864;12.766;2023-05-12T09:35:08;97623.44;;;21.95;38.92
14242;BME280;7205;50.864;12.766;2023-05-12T09:37:37;97621.25;;;21.92;38.75
14242;BME280;7205;50.864;12.766;2023-05-12T09:40:05;97619.72;;;21.80;38.33
14242;BME280;7205;50.864;12.766;2023-05-12T09:42:34;97630.53;;;21.68;37.96
14242;BME280;7205;50.864;12.766;2023-05-12T09:45:01;97625.19;;;21.52;38.38
14242;BME280;7205;50.864;12.766;2023-05-12T09:47:33;97625.03;;;21.42;38.50
14242;BME280;7205;50.864;12.766;2023-05-12T09:50:02;97623.69;;;21.44;38.38
14242;BME280;7205;50.864;12.766;2023-05-12T09:52:38;97618.56;;;21.43;38.58
14242;BME280;7205;50.864;12.766;2023-05-12T09:55:11;97618.25;;;21.56;38.88
14242;BME280;7205;50.864;12.766;2023-05-12T09:57:41;97619.13;;;21.61;38.80
14242;BME280;7205;50.864;12.766;2023-05-12T10:00:09;97618.41;;;21.66;38.42
14242;BME280;7205;50.864;12.766;2023-05-12T10:02:39;97627.84;;;21.68;38.21
14242;BME280;7205;50.864;12.766;2023-05-12T10:05:13;97629.56;;;21.74;38.30
14242;BME280;7205;50.864;12.766;2023-05-12T10:07:41;97631.34;;;21.85;38.02
14242;BME280;7205;50.864;12.766;2023-05-12T10:10:10;97624.50;;;21.94;37.77
14242;BME280;7205;50.864;12.766;2023-05-12T10:12:41;97634.75;;;21.97;37.09
14242;BME280;7205;50.864;12.766;2023-05-12T10:15:12;97631.22;;;21.92;36.73
14242;BME280;7205;50.864;12.766;2023-05-12T10:17:43;97639.50;;;21.90;37.00
14242;BME280;7205;50.864;12.766;2023-05-12T10:20:12;97634.88;;;21.86;37.14
14242;BME280;7205;50.864;12.766;2023-05-12T10:22:41;97635.03;;;21.79;37.54
14242;BME280;7205;50.864;12.766;2023-05-12T10:25:10;97634.34;;;21.72;37.54
14242;BME280;7205;50.864;12.766;2023-05-12T10:27:38;97621.72;;;21.73;38.07
14242;BME280;7205;50.864;12.766;2023-05-12T10:30:09;97621.84;;;21.78;38.25
14242;BME280;7205;50.864;12.766;2023-05-12T10:32:37;97622.06;;;21.93;38.30
14242;BME280;7205;50.864;12.766;2023-05-12T10:35:08;97628.56;;;22.13;38.13
14242;BME280;7205;50.864;12.766;2023-05-12T10:37:35;97628.56;;;22.35;37.97
14242;BME280;7205;50.864;12.766;2023-05-12T10:40:03;97621.34;;;22.57;37.46
14242;BME280;7205;50.864;12.766;2023-05-12T10:42:36;97616.41;;;22.76;36.68
14242;BME280;7205;50.864;12.766;2023-05-12T10:45:13;97621.16;;;22.90;36.35
14242;BME280;7205;50.864;12.766;2023-05-12T10:47:42;97624.94;;;22.94;35.50
14242;BME280;7205;50.864;12.766;2023-05-12T10:50:10;97620.91;;;22.92;35.10
14242;BME280;7205;50.864;12.766;2023-05-12T10:52:38;97622.78;;;22.91;34.35
14242;BME280;7205;50.864;12.766;2023-05-12T10:55:10;97623.34;;;22.93;34.22
14242;BME280;7205;50.864;12.766;2023-05-12T10:57:47;97616.97;;;23.04;34.72
14242;BME280;7205;50.864;12.766;2023-05-12T11:00:20;97624.19;;;23.25;34.76
14242;BME280;7205;50.864;12.766;2023-05-12T11:02:50;97617.94;;;23.46;34.20
14242;BME280;7205;50.864;12.766;2023-05-12T11:05:16;97618.63;;;23.64;33.46
14242;BME280;7205;50.864;12.766;2023-05-12T11:07:46;97621.09;;;23.70;32.62
14242;BME280;7205;50.864;12.766;2023-05-12T11:10:14;97620.28;;;23.75;32.90
14242;BME280;7205;50.864;12.766;2023-05-12T11:12:42;97628.69;;;23.78;32.88
14242;BME280;7205;50.864;12.766;2023-05-12T11:15:10;97622.28;;;23.84;33.25
14242;BME280;7205;50.864;12.766;2023-05-12T11:17:39;97626.66;;;23.95;32.87
14242;BME280;7205;50.864;12.766;2023-05-12T11:20:06;97620.00;;;24.03;32.14
14242;BME280;7205;50.864;12.766;2023-05-12T11:22:35;97627.59;;;24.11;31.37
14242;BME280;7205;50.864;12.766;2023-05-12T11:25:08;97620.06;;;24.13;31.16
14242;BME280;7205;50.864;12.766;2023-05-12T11:27:35;97617.69;;;24.26;30.92
14242;BME280;7205;50.864;12.766;2023-05-12T11:30:07;97625.84;;;24.36;30.91
14242;BME280;7205;50.864;12.766;2023-05-12T11:32:35;97624.25;;;24.45;31.13
14242;BME280;7205;50.864;12.766;2023-05-12T11:35:11;97626.72;;;24.52;30.59
14242;BME280;7205;50.864;12.766;2023-05-12T11:37:39;97615.63;;;24.53;30.04
14242;BME280;7205;50.864;12.766;2023-05-12T11:40:14;97623.44;;;24.50;30.11
14242;BME280;7205;50.864;12.766;2023-05-12T11:42:41;97623.19;;;24.46;30.49
14242;BME280;7205;50.864;12.766;2023-05-12T11:45:23;97625.81;;;24.31;30.62
14242;BME280;7205;50.864;12.766;2023-05-12T11:47:52;97633.31;;;24.19;30.80
14242;BME280;7205;50.864;12.766;2023-05-12T11:50:21;97632.09;;;24.00;31.06
14242;BME280;7205;50.864;12.766;2023-05-12T11:52:49;97624.38;;;23.77;30.79
14242;BME280;7205;50.864;12.766;2023-05-12T11:55:21;97633.34;;;23.51;31.18
14242;BME280;7205;50.864;12.766;2023-05-12T11:57:59;97635.25;;;23.24;31.84
14242;BME280;7205;50.864;12.766;2023-05-12T12:00:28;97645.50;;;23.00;32.13
14242;BME280;7205;50.864;12.766;2023-05-12T12:03:09;97643.06;;;22.72;32.58
14242;BME280;7205;50.864;12.766;2023-05-12T12:05:38;97641.38;;;22.50;32.83
14242;BME280;7205;50.864;12.766;2023-05-12T12:08:08;97650.03;;;22.30;32.88
14242;BME280;7205;50.864;12.766;2023-05-12T12:10:37;97649.25;;;22.13;33.56
14242;BME280;7205;50.864;12.766;2023-05-12T12:13:05;97654.72;;;22.01;33.81
14242;BME280;7205;50.864;12.766;2023-05-12T12:15:31;97651.00;;;21.86;34.04
14242;BME280;7205;50.864;12.766;2023-05-12T12:17:58;97651.88;;;21.75;34.50
14242;BME280;7205;50.864;12.766;2023-05-12T12:20:25;97658.72;;;21.66;35.00
14242;BME280;7205;50.864;12.766;2023-05-12T12:22:53;97660.28;;;21.62;35.12
14242;BME280;7205;50.864;12.766;2023-05-12T12:25:20;97659.88;;;21.53;35.21
14242;BME280;7205;50.864;12.766;2023-05-12T12:27:47;97661.06;;;21.46;35.31
14242;BME280;7205;50.864;12.766;2023-05-12T12:30:15;97667.28;;;21.46;35.75
14242;BME280;7205;50.864;12.766;2023-05-12T12:32:43;97660.19;;;21.57;36.18
14242;BME280;7205;50.864;12.766;2023-05-12T12:35:10;97657.25;;;21.75;36.34
14242;BME280;7205;50.864;12.766;2023-05-12T12:37:38;97647.72;;;22.00;36.27
14242;BME280;7205;50.864;12.766;2023-05-12T12:40:07;97654.00;;;22.27;36.29
14242;BME280;7205;50.864;12.766;2023-05-12T12:42:36;97648.78;;;22.59;36.36
14242;BME280;7205;50.864;12.766;2023-05-12T12:45:04;97641.88;;;22.90;35.71
14242;BME280;7205;50.864;12.766;2023-05-12T12:47:32;97651.66;;;23.22;34.90
14242;BME280;7205;50.864;12.766;2023-05-12T12:49:59;97645.66;;;23.42;33.89
14242;BME280;7205;50.864;12.766;2023-05-12T12:52:26;97646.31;;;23.54;32.91
14242;BME280;7205;50.864;12.766;2023-05-12T12:54:53;97651.75;;;23.59;32.32
14242;BME280;7205;50.864;12.766;2023-05-12T13:01:47;97655.22;;;23.28;31.95
14242;BME280;7205;50.864;12.766;2023-05-12T13:05:12;97652.25;;;23.03;32.56
14242;BME280;7205;50.864;12.766;2023-05-12T13:07:46;97655.72;;;22.98;32.77
14242;BME280;7205;50.864;12.766;2023-05-12T13:10:13;97665.41;;;22.99;32.99
14242;BME280;7205;50.864;12.766;2023-05-12T13:12:40;97655.81;;;23.08;33.50